sensor_id;sensor_type;location;lat;lon;timestamp;pressure;altitude;pressure_sealevel;temperature;humidity
73952;BME280;62304;47.662;18.324;2022-07-23T00:00:28;100167.25;;;24.78;50.42
73952;BME280;62304;47.662;18.324;2022-07-23T00:03:40;100166.16;;;24.76;50.58
73952;BME280;62304;47.662;18.324;2022-07-23T00:06:42;100168.34;;;24.72;50.61
73952;BME280;62304;47.662;18.324;2022-07-23T00:09:46;100168.50;;;24.68;50.71
73952;BME280;62304;47.662;18.324;2022-07-23T00:12:48;100169.75;;;24.67;50.57
73952;BME280;62304;47.662;18.324;2022-07-23T00:15:53;100172.25;;;24.65;50.75
73952;BME280;62304;47.662;18.324;2022-07-23T00:18:56;100170.38;;;24.62;50.79
73952;BME280;62304;47.662;18.324;2022-07-23T00:22:00;100172.22;;;24.56;51.02
73952;BME280;62304;47.662;18.324;2022-07-23T00:25:03;100170.53;;;24.59;50.90
73952;BME280;62304;47.662;18.324;2022-07-23T00:28:26;100176.31;;;24.55;51.04
73952;BME280;62304;47.662;18.324;2022-07-23T00:31:28;100178.66;;;24.48;51.15
73952;BME280;62304;47.662;18.324;2022-07-23T00:34:32;100170.62;;;24.46;51.23
73952;BME280;62304;47.662;18.324;2022-07-23T00:37:35;100176.44;;;24.43;51.09
73952;BME280;62304;47.662;18.324;2022-07-23T00:40:38;100175.78;;;24.39;51.35
73952;BME280;62304;47.662;18.324;2022-07-23T00:43:41;100180.97;;;24.31;51.70
73952;BME280;62304;47.662;18.324;2022-07-23T00:46:49;100189.47;;;24.31;51.84
73952;BME280;62304;47.662;18.324;2022-07-23T00:49:53;100185.22;;;24.27;52.09
73952;BME280;62304;47.662;18.324;2022-07-23T00:52:56;100185.34;;;24.23;52.17
73952;BME280;62304;47.662;18.324;2022-07-23T00:55:59;100186.13;;;24.24;52.27
73952;BME280;62304;47.662;18.324;2022-07-23T00:59:03;100188.94;;;24.15;52.66
73952;BME280;62304;47.662;18.324;2022-07-23T01:02:06;100185.00;;;24.12;52.62
73952;BME280;62304;47.662;18.324;2022-07-23T01:05:09;100181.81;;;24.10;52.54
73952;BME280;62304;47.662;18.324;2022-07-23T01:08:12;100183.53;;;24.08;52.64
73952;BME280;62304;47.662;18.324;2022-07-23T01:11:17;100188.12;;;24.05;52.83
73952;BME280;62304;47.662;18.324;2022-07-23T01:14:20;100184.78;;;23.98;52.90
73952;BME280;62304;47.662;18.324;2022-07-23T01:17:24;100181.59;;;23.96;53.06
73952;BME280;62304;47.662;18.324;2022-07-23T01:20:27;100183.56;;;23.86;53.14
73952;BME280;62304;47.662;18.324;2022-07-23T01:23:31;100190.19;;;23.83;53.10
73952;BME280;62304;47.662;18.324;2022-07-23T01:26:34;100183.06;;;23.79;52.97
73952;BME280;62304;47.662;18.324;2022-07-23T01:29:38;100176.28;;;23.76;52.97
73952;BME280;62304;47.662;18.324;2022-07-23T01:32:41;100178.28;;;23.67;53.03
73952;BME280;62304;47.662;18.324;2022-07-23T01:35:44;100181.44;;;23.47;53.37
73952;BME280;62304;47.662;18.324;2022-07-23T01:38:51;100175.25;;;23.40;53.10
73952;BME280;62304;47.662;18.324;2022-07-23T01:41:55;100170.56;;;23.46;52.30
73952;BME280;62304;47.662;18.324;2022-07-23T01:44:58;100174.53;;;23.48;52.02
73952;BME280;62304;47.662;18.324;2022-07-23T01:48:02;100171.25;;;23.50;51.77
73952;BME280;62304;47.662;18.324;2022-07-23T01:51:12;100175.34;;;23.49;51.79
73952;BME280;62304;47.662;18.324;2022-07-23T01:54:15;100182.56;;;23.50;51.92
73952;BME280;62304;47.662;18.324;2022-07-23T01:57:18;100186.66;;;23.49;51.93
73952;BME280;62304;47.662;18.324;2022-07-23T02:00:21;100179.41;;;23.48;51.79
73952;BME280;62304;47.662;18.324;2022-07-23T02:03:26;100178.75;;;23.44;51.64
73952;BME280;62304;47.662;18.324;2022-07-23T02:06:29;100174.34;;;23.43;51.60
73952;BME280;62304;47.662;18.324;2022-07-23T02:09:32;100173.38;;;23.37;52.20
73952;BME280;62304;47.662;18.324;2022-07-23T02:12:35;100165.19;;;23.39;52.64
73952;BME280;62304;47.662;18.324;2022-07-23T02:15:39;100161.38;;;23.33;53.19
73952;BME280;62304;47.662;18.324;2022-07-23T02:18:41;100162.16;;;23.33;53.36
73952;BME280;62304;47.662;18.324;2022-07-23T02:21:45;100167.16;;;23.29;52.98
73952;BME280;62304;47.662;18.324;2022-07-23T02:24:48;100164.12;;;23.24;53.01
73952;BME280;62304;47.662;18.324;2022-07-23T02:27:51;100170.13;;;23.26;53.15
73952;BME280;62304;47.662;18.324;2022-07-23T02:30:54;100162.56;;;23.23;53.32
73952;BME280;62304;47.662;18.324;2022-07-23T02:33:57;100174.47;;;23.18;53.53
73952;BME280;62304;47.662;18.324;2022-07-23T02:37:00;100168.44;;;23.16;53.35
73952;BME280;62304;47.662;18.324;2022-07-23T02:40:04;100166.22;;;23.11;53.83
73952;BME280;62304;47.662;18.324;2022-07-23T02:43:09;100176.84;;;23.07;54.03
73952;BME280;62304;47.662;18.324;2022-07-23T02:46:13;100180.81;;;23.09;54.37
73952;BME280;62304;47.662;18.324;2022-07-23T02:49:16;100177.66;;;23.07;54.99
73952;BME280;62304;47.662;18.324;2022-07-23T02:52:20;100169.94;;;23.08;55.19
73952;BME280;62304;47.662;18.324;2022-07-23T02:55:23;100176.72;;;23.10;55.00
73952;BME280;62304;47.662;18.324;2022-07-23T02:58:26;100173.44;;;23.12;54.81
73952;BME280;62304;47.662;18.324;2022-07-23T03:01:29;100169.03;;;23.11;54.88
73952;BME280;62304;47.662;18.324;2022-07-23T03:04:32;100165.84;;;23.09;54.98
73952;BME280;62304;47.662;18.324;2022-07-23T03:07:36;100158.87;;;23.01;55.29
73952;BME280;62304;47.662;18.324;2022-07-23T03:10:39;100159.88;;;23.07;54.91
73952;BME280;62304;47.662;18.324;2022-07-23T03:13:43;100160.69;;;23.07;54.57
73952;BME280;62304;47.662;18.324;2022-07-23T03:16:46;100152.19;;;23.07;54.41
73952;BME280;62304;47.662;18.324;2022-07-23T03:19:48;100147.78;;;23.06;54.41
73952;BME280;62304;47.662;18.324;2022-07-23T03:22:52;100144.75;;;23.01;54.67
73952;BME280;62304;47.662;18.324;2022-07-23T03:25:54;100150.84;;;22.99;54.81
73952;BME280;62304;47.662;18.324;2022-07-23T03:28:58;100156.06;;;23.01;54.56
73952;BME280;62304;47.662;18.324;2022-07-23T03:32:05;100164.22;;;22.99;54.78
73952;BME280;62304;47.662;18.324;2022-07-23T03:35:08;100164.53;;;23.01;54.87
73952;BME280;62304;47.662;18.324;2022-07-23T03:38:15;100168.31;;;22.98;54.88
73952;BME280;62304;47.662;18.324;2022-07-23T03:41:19;100162.16;;;22.99;55.10
73952;BME280;62304;47.662;18.324;2022-07-23T03:44:22;100154.81;;;23.02;55.24
73952;BME280;62304;47.662;18.324;2022-07-23T03:47:25;100165.81;;;23.00;55.59
73952;BME280;62304;47.662;18.324;2022-07-23T03:50:28;100159.56;;;23.05;55.40
73952;BME280;62304;47.662;18.324;2022-07-23T03:53:31;100161.44;;;23.08;55.65
73952;BME280;62304;47.662;18.324;2022-07-23T03:56:36;100166.66;;;23.09;55.67
73952;BME280;62304;47.662;18.324;2022-07-23T03:59:39;100164.28;;;23.08;55.41
73952;BME280;62304;47.662;18.324;2022-07-23T04:02:42;100172.53;;;23.15;55.64
73952;BME280;62304;47.662;18.324;2022-07-23T04:05:45;100171.94;;;23.20;55.55
73952;BME280;62304;47.662;18.324;2022-07-23T04:08:48;100168.88;;;23.27;55.72
73952;BME280;62304;47.662;18.324;2022-07-23T04:11:51;100172.63;;;23.24;55.17
73952;BME280;62304;47.662;18.324;2022-07-23T04:14:54;100174.41;;;23.30;55.00
73952;BME280;62304;47.662;18.324;2022-07-23T04:17:58;100169.28;;;23.38;54.89
73952;BME280;62304;47.662;18.324;2022-07-23T04:21:01;100169.13;;;23.41;54.62
73952;BME280;62304;47.662;18.324;2022-07-23T04:24:04;100166.03;;;23.48;54.49
73952;BME280;62304;47.662;18.324;2022-07-23T04:27:07;100169.37;;;23.56;54.61
73952;BME280;62304;47.662;18.324;2022-07-23T04:30:11;100171.63;;;23.61;54.93
73952;BME280;62304;47.662;18.324;2022-07-23T04:33:15;100168.66;;;23.64;54.77
73952;BME280;62304;47.662;18.324;2022-07-23T04:36:18;100170.44;;;23.71;54.57
73952;BME280;62304;47.662;18.324;2022-07-23T04:39:21;100168.56;;;23.77;54.54
73952;BME280;62304;47.662;18.324;2022-07-23T04:42:24;100164.19;;;23.85;54.05
73952;BME280;62304;47.662;18.324;2022-07-23T04:45:27;100160.09;;;23.86;53.99
73952;BME280;62304;47.662;18.324;2022-07-23T04:48:31;100160.50;;;23.97;53.81
73952;BME280;62304;47.662;18.324;2022-07-23T04:51:35;100159.94;;;24.11;54.08
73952;BME280;62304;47.662;18.324;2022-07-23T04:54:38;100165.00;;;24.16;53.84
73952;BME280;62304;47.662;18.324;2022-07-23T04:57:41;100153.72;;;24.25;53.94
73952;BME280;62304;47.662;18.324;2022-07-23T05:00:44;100159.22;;;24.28;53.87
73952;BME280;62304;47.662;18.324;2022-07-23T05:03:46;100162.87;;;24.38;53.46
73952;BME280;62304;47.662;18.324;2022-07-23T05:06:51;100156.91;;;24.45;53.51
73952;BME280;62304;47.662;18.324;2022-07-23T05:09:54;100155.22;;;24.56;53.25
73952;BME280;62304;47.662;18.324;2022-07-23T05:12:57;100151.28;;;24.63;53.64
73952;BME280;62304;47.662;18.324;2022-07-23T05:16:00;100163.13;;;24.70;53.66
73952;BME280;62304;47.662;18.324;2022-07-23T05:19:03;100163.94;;;24.80;53.32
73952;BME280;62304;47.662;18.324;2022-07-23T05:22:07;100149.13;;;24.85;53.15
73952;BME280;62304;47.662;18.324;2022-07-23T05:25:11;100148.34;;;24.93;54.17
73952;BME280;62304;47.662;18.324;2022-07-23T05:28:14;100146.31;;;25.03;53.98
73952;BME280;62304;47.662;18.324;2022-07-23T05:31:24;100152.94;;;25.09;54.40
73952;BME280;62304;47.662;18.324;2022-07-23T05:34:27;100156.25;;;25.16;54.38
73952;BME280;62304;47.662;18.324;2022-07-23T05:37:31;100153.53;;;25.22;54.25
73952;BME280;62304;47.662;18.324;2022-07-23T05:40:33;100154.84;;;25.30;54.15
73952;BME280;62304;47.662;18.324;2022-07-23T05:43:37;100153.53;;;25.40;54.06
73952;BME280;62304;47.662;18.324;2022-07-23T05:46:40;100146.91;;;25.52;53.37
73952;BME280;62304;47.662;18.324;2022-07-23T05:49:44;100131.25;;;25.65;52.23
73952;BME280;62304;47.662;18.324;2022-07-23T05:52:48;100130.75;;;25.76;52.00
73952;BME280;62304;47.662;18.324;2022-07-23T05:55:52;100132.59;;;25.88;52.91
73952;BME280;62304;47.662;18.324;2022-07-23T05:58:55;100129.88;;;26.02;52.03
73952;BME280;62304;47.662;18.324;2022-07-23T06:01:58;100136.16;;;26.15;52.54
73952;BME280;62304;47.662;18.324;2022-07-23T06:05:01;100131.31;;;26.30;52.64
73952;BME280;62304;47.662;18.324;2022-07-23T06:08:05;100134.53;;;26.47;52.22
73952;BME280;62304;47.662;18.324;2022-07-23T06:11:08;100137.47;;;26.61;51.23
73952;BME280;62304;47.662;18.324;2022-07-23T06:14:11;100141.00;;;26.80;50.78
73952;BME280;62304;47.662;18.324;2022-07-23T06:17:15;100128.84;;;26.94;49.88
73952;BME280;62304;47.662;18.324;2022-07-23T06:20:17;100135.69;;;27.11;49.77
73952;BME280;62304;47.662;18.324;2022-07-23T06:23:21;100133.19;;;27.27;48.47
73952;BME280;62304;47.662;18.324;2022-07-23T06:26:23;100131.72;;;27.46;47.45
73952;BME280;62304;47.662;18.324;2022-07-23T06:29:26;100131.22;;;27.62;46.94
73952;BME280;62304;47.662;18.324;2022-07-23T06:32:29;100142.75;;;27.82;48.01
73952;BME280;62304;47.662;18.324;2022-07-23T06:35:34;100126.44;;;27.97;47.40
73952;BME280;62304;47.662;18.324;2022-07-23T06:38:37;100119.69;;;28.15;46.08
73952;BME280;62304;47.662;18.324;2022-07-23T06:41:41;100126.81;;;28.39;44.85
73952;BME280;62304;47.662;18.324;2022-07-23T06:44:49;100120.94;;;28.63;43.40
73952;BME280;62304;47.662;18.324;2022-07-23T06:47:52;100126.94;;;28.85;42.53
73952;BME280;62304;47.662;18.324;2022-07-23T06:50:55;100125.94;;;29.08;41.83
73952;BME280;62304;47.662;18.324;2022-07-23T06:53:59;100113.19;;;29.29;41.81
73952;BME280;62304;47.662;18.324;2022-07-23T06:57:02;100109.00;;;29.50;41.37
73952;BME280;62304;47.662;18.324;2022-07-23T07:00:06;100117.06;;;29.77;40.47
73952;BME280;62304;47.662;18.324;2022-07-23T07:03:10;100123.47;;;29.97;39.99
73952;BME280;62304;47.662;18.324;2022-07-23T07:06:13;100131.25;;;30.22;38.83
73952;BME280;62304;47.662;18.324;2022-07-23T07:09:16;100130.84;;;30.46;38.93
73952;BME280;62304;47.662;18.324;2022-07-23T07:12:20;100127.38;;;30.67;38.45
73952;BME280;62304;47.662;18.324;2022-07-23T07:15:23;100129.59;;;30.94;38.27
73952;BME280;62304;47.662;18.324;2022-07-23T07:18:26;100130.19;;;31.20;37.83
73952;BME280;62304;47.662;18.324;2022-07-23T07:21:29;100127.12;;;31.40;36.98
73952;BME280;62304;47.662;18.324;2022-07-23T07:24:32;100128.75;;;31.58;36.83
73952;BME280;62304;47.662;18.324;2022-07-23T07:27:40;100122.78;;;31.78;36.30
73952;BME280;62304;47.662;18.324;2022-07-23T07:30:43;100122.00;;;31.94;36.13
73952;BME280;62304;47.662;18.324;2022-07-23T07:33:45;100118.34;;;31.93;35.70
73952;BME280;62304;47.662;18.324;2022-07-23T07:36:49;100114.66;;;31.65;35.45
73952;BME280;62304;47.662;18.324;2022-07-23T07:39:52;100124.03;;;31.55;35.41
73952;BME280;62304;47.662;18.324;2022-07-23T07:42:55;100118.84;;;31.75;35.34
73952;BME280;62304;47.662;18.324;2022-07-23T07:45:59;100113.38;;;32.05;35.18
73952;BME280;62304;47.662;18.324;2022-07-23T07:49:02;100111.28;;;32.38;34.54
73952;BME280;62304;47.662;18.324;2022-07-23T07:52:07;100099.16;;;32.67;33.26
73952;BME280;62304;47.662;18.324;2022-07-23T07:55:10;100105.94;;;32.86;32.83
73952;BME280;62304;47.662;18.324;2022-07-23T07:58:13;100111.81;;;33.05;32.13
73952;BME280;62304;47.662;18.324;2022-07-23T08:01:16;100106.78;;;33.22;31.76
73952;BME280;62304;47.662;18.324;2022-07-23T08:04:20;100111.13;;;33.39;30.92
73952;BME280;62304;47.662;18.324;2022-07-23T08:07:23;100109.22;;;33.53;30.55
73952;BME280;62304;47.662;18.324;2022-07-23T08:10:27;100107.50;;;33.74;30.30
73952;BME280;62304;47.662;18.324;2022-07-23T08:13:30;100109.59;;;33.79;30.19
73952;BME280;62304;47.662;18.324;2022-07-23T08:16:33;100109.13;;;33.99;29.98
73952;BME280;62304;47.662;18.324;2022-07-23T08:19:46;100113.72;;;34.13;30.12
73952;BME280;62304;47.662;18.324;2022-07-23T08:22:56;100109.94;;;34.29;29.26
73952;BME280;62304;47.662;18.324;2022-07-23T08:25:59;100116.06;;;34.44;28.61
73952;BME280;62304;47.662;18.324;2022-07-23T08:29:03;100109.03;;;34.63;28.43
73952;BME280;62304;47.662;18.324;2022-07-23T08:32:06;100101.16;;;34.88;28.19
73952;BME280;62304;47.662;18.324;2022-07-23T08:35:34;100099.88;;;34.83;28.19
73952;BME280;62304;47.662;18.324;2022-07-23T08:38:37;100102.41;;;35.11;27.31
73952;BME280;62304;47.662;18.324;2022-07-23T08:41:40;100097.19;;;34.67;30.14
73952;BME280;62304;47.662;18.324;2022-07-23T08:44:45;100104.28;;;34.66;29.09
73952;BME280;62304;47.662;18.324;2022-07-23T08:47:51;100100.72;;;35.21;27.45
73952;BME280;62304;47.662;18.324;2022-07-23T08:50:57;100097.91;;;35.34;27.23
73952;BME280;62304;47.662;18.324;2022-07-23T08:54:00;100091.34;;;35.52;26.44
73952;BME280;62304;47.662;18.324;2022-07-23T08:57:04;100106.00;;;35.72;26.26
73952;BME280;62304;47.662;18.324;2022-07-23T09:00:08;100102.03;;;35.88;26.15
73952;BME280;62304;47.662;18.324;2022-07-23T09:03:22;100097.00;;;36.65;25.42
73952;BME280;62304;47.662;18.324;2022-07-23T09:06:26;100097.00;;;36.65;25.42
73952;BME280;62304;47.662;18.324;2022-07-23T09:09:28;100102.91;;;36.15;25.80
73952;BME280;62304;47.662;18.324;2022-07-23T09:12:33;100102.91;;;36.15;26.13
73952;BME280;62304;47.662;18.324;2022-07-23T09:15:48;100107.84;;;36.33;25.70
73952;BME280;62304;47.662;18.324;2022-07-23T09:18:58;100105.16;;;36.35;24.92
73952;BME280;62304;47.662;18.324;2022-07-23T09:22:23;100108.97;;;36.56;24.90
73952;BME280;62304;47.662;18.324;2022-07-23T09:25:30;100104.13;;;36.64;24.80
73952;BME280;62304;47.662;18.324;2022-07-23T09:28:50;100101.00;;;36.75;25.03
73952;BME280;62304;47.662;18.324;2022-07-23T09:31:58;100105.75;;;36.46;24.60
73952;BME280;62304;47.662;18.324;2022-07-23T09:35:00;100109.62;;;36.49;25.07
73952;BME280;62304;47.662;18.324;2022-07-23T09:38:03;100113.88;;;36.61;25.53
73952;BME280;62304;47.662;18.324;2022-07-23T09:41:10;100118.91;;;36.73;24.80
73952;BME280;62304;47.662;18.324;2022-07-23T09:44:17;100105.91;;;36.80;25.90
73952;BME280;62304;47.662;18.324;2022-07-23T09:47:22;100107.97;;;36.92;25.81
73952;BME280;62304;47.662;18.324;2022-07-23T09:50:25;100099.19;;;36.98;25.86
73952;BME280;62304;47.662;18.324;2022-07-23T09:53:29;100099.84;;;37.17;26.24
73952;BME280;62304;47.662;18.324;2022-07-23T09:56:35;100099.03;;;37.29;25.96
73952;BME280;62304;47.662;18.324;2022-07-23T09:59:40;100098.19;;;37.55;25.32
73952;BME280;62304;47.662;18.324;2022-07-23T10:02:46;100095.81;;;37.53;25.31
73952;BME280;62304;47.662;18.324;2022-07-23T10:05:55;100094.31;;;37.73;25.19
73952;BME280;62304;47.662;18.324;2022-07-23T10:09:00;100078.28;;;37.92;25.00
73952;BME280;62304;47.662;18.324;2022-07-23T10:12:13;100089.75;;;37.98;24.44
73952;BME280;62304;47.662;18.324;2022-07-23T10:15:19;100092.63;;;37.98;24.63
73952;BME280;62304;47.662;18.324;2022-07-23T10:18:22;100084.34;;;38.43;23.93
73952;BME280;62304;47.662;18.324;2022-07-23T10:21:45;100083.31;;;38.61;23.95
73952;BME280;62304;47.662;18.324;2022-07-23T10:29:01;100069.41;;;38.39;23.62
73952;BME280;62304;47.662;18.324;2022-07-23T10:38:25;100080.44;;;38.12;22.79
73952;BME280;62304;47.662;18.324;2022-07-23T10:41:38;100077.09;;;38.29;23.40
73952;BME280;62304;47.662;18.324;2022-07-23T10:44:46;100075.41;;;38.61;22.66
73952;BME280;62304;47.662;18.324;2022-07-23T10:47:50;100073.28;;;38.62;22.36
73952;BME280;62304;47.662;18.324;2022-07-23T10:51:25;100065.44;;;38.77;22.13
73952;BME280;62304;47.662;18.324;2022-07-23T10:54:30;100069.81;;;38.99;21.94
73952;BME280;62304;47.662;18.324;2022-07-23T10:57:47;100059.47;;;39.26;21.51
73952;BME280;62304;47.662;18.324;2022-07-23T11:00:50;100057.19;;;39.32;21.31
73952;BME280;62304;47.662;18.324;2022-07-23T11:03:57;100058.56;;;39.38;21.77
73952;BME280;62304;47.662;18.324;2022-07-23T11:10:05;100050.56;;;39.24;22.02
73952;BME280;62304;47.662;18.324;2022-07-23T11:16:27;100054.37;;;39.11;22.15
73952;BME280;62304;47.662;18.324;2022-07-23T11:19:29;100048.72;;;39.56;22.09
73952;BME280;62304;47.662;18.324;2022-07-23T11:22:36;100044.66;;;39.52;22.12
73952;BME280;62304;47.662;18.324;2022-07-23T11:25:39;100039.16;;;39.26;22.41
73952;BME280;62304;47.662;18.324;2022-07-23T11:28:42;100043.06;;;39.36;22.66
73952;BME280;62304;47.662;18.324;2022-07-23T11:32:26;100028.81;;;39.98;21.68
73952;BME280;62304;47.662;18.324;2022-07-23T11:35:30;100030.19;;;40.12;21.24
73952;BME280;62304;47.662;18.324;2022-07-23T11:38:35;100034.06;;;39.92;21.51
73952;BME280;62304;47.662;18.324;2022-07-23T11:41:44;100026.91;;;39.78;21.62
73952;BME280;62304;47.662;18.324;2022-07-23T11:44:47;100029.59;;;39.98;21.45
73952;BME280;62304;47.662;18.324;2022-07-23T11:47:51;100025.16;;;40.27;21.50
73952;BME280;62304;47.662;18.324;2022-07-23T11:50:55;100019.31;;;40.35;21.83
73952;BME280;62304;47.662;18.324;2022-07-23T11:54:05;100023.19;;;40.37;21.35
73952;BME280;62304;47.662;18.324;2022-07-23T11:57:08;100008.47;;;39.98;21.64
73952;BME280;62304;47.662;18.324;2022-07-23T12:00:21;100006.53;;;39.55;21.54
73952;BME280;62304;47.662;18.324;2022-07-23T12:03:25;100003.06;;;40.02;21.34
73952;BME280;62304;47.662;18.324;2022-07-23T12:06:28;100003.28;;;40.81;20.65
73952;BME280;62304;47.662;18.324;2022-07-23T12:09:31;99997.03;;;41.63;20.04
73952;BME280;62304;47.662;18.324;2022-07-23T12:12:39;99988.50;;;42.07;19.28
73952;BME280;62304;47.662;18.324;2022-07-23T12:15:45;99982.12;;;42.60;18.43
73952;BME280;62304;47.662;18.324;2022-07-23T12:18:48;99971.69;;;43.00;18.22
73952;BME280;62304;47.662;18.324;2022-07-23T12:21:53;99971.94;;;43.38;18.18
73952;BME280;62304;47.662;18.324;2022-07-23T12:24:59;99959.53;;;43.83;17.51
73952;BME280;62304;47.662;18.324;2022-07-23T12:31:13;99953.47;;;44.46;16.00
73952;BME280;62304;47.662;18.324;2022-07-23T12:34:18;99954.25;;;44.75;16.04
73952;BME280;62304;47.662;18.324;2022-07-23T12:37:28;99947.13;;;45.06;15.88
73952;BME280;62304;47.662;18.324;2022-07-23T12:40:35;99942.41;;;45.41;14.58
73952;BME280;62304;47.662;18.324;2022-07-23T12:43:40;99932.75;;;45.90;14.89
73952;BME280;62304;47.662;18.324;2022-07-23T12:46:50;99929.19;;;46.34;14.61
73952;BME280;62304;47.662;18.324;2022-07-23T12:49:53;99932.75;;;46.53;14.18
73952;BME280;62304;47.662;18.324;2022-07-23T12:53:09;99929.25;;;46.66;13.99
73952;BME280;62304;47.662;18.324;2022-07-23T12:56:34;99932.87;;;46.76;13.50
73952;BME280;62304;47.662;18.324;2022-07-23T12:59:37;99927.66;;;46.86;13.71
73952;BME280;62304;47.662;18.324;2022-07-23T13:02:45;99916.81;;;46.77;13.83
73952;BME280;62304;47.662;18.324;2022-07-23T13:05:49;99904.06;;;46.96;13.22
73952;BME280;62304;47.662;18.324;2022-07-23T13:08:52;99893.34;;;47.00;13.72
73952;BME280;62304;47.662;18.324;2022-07-23T13:11:56;99898.97;;;46.96;13.51
73952;BME280;62304;47.662;18.324;2022-07-23T13:14:59;99889.06;;;47.47;13.27
73952;BME280;62304;47.662;18.324;2022-07-23T13:18:02;99882.19;;;47.43;13.33
73952;BME280;62304;47.662;18.324;2022-07-23T13:21:05;99886.41;;;47.51;12.99
73952;BME280;62304;47.662;18.324;2022-07-23T13:24:09;99884.09;;;47.50;12.74
73952;BME280;62304;47.662;18.324;2022-07-23T13:27:14;99882.06;;;45.78;14.52
73952;BME280;62304;47.662;18.324;2022-07-23T13:30:18;99887.59;;;45.13;14.96
73952;BME280;62304;47.662;18.324;2022-07-23T13:33:26;99894.97;;;43.62;16.42
73952;BME280;62304;47.662;18.324;2022-07-23T13:36:29;99887.09;;;43.91;16.05
73952;BME280;62304;47.662;18.324;2022-07-23T13:39:32;99902.63;;;44.03;15.95
73952;BME280;62304;47.662;18.324;2022-07-23T13:42:40;99892.03;;;44.55;15.48
73952;BME280;62304;47.662;18.324;2022-07-23T13:45:43;99890.00;;;44.01;15.96
73952;BME280;62304;47.662;18.324;2022-07-23T13:48:49;99890.47;;;43.88;16.21
73952;BME280;62304;47.662;18.324;2022-07-23T13:51:52;99880.78;;;44.42;15.42
73952;BME280;62304;47.662;18.324;2022-07-23T13:54:56;99884.78;;;43.99;16.07
73952;BME280;62304;47.662;18.324;2022-07-23T13:58:00;99876.88;;;43.73;16.21
73952;BME280;62304;47.662;18.324;2022-07-23T14:01:04;99880.09;;;42.69;16.93
73952;BME280;62304;47.662;18.324;2022-07-23T14:04:07;99875.41;;;42.83;16.92
73952;BME280;62304;47.662;18.324;2022-07-23T14:07:10;99867.38;;;41.55;18.20
73952;BME280;62304;47.662;18.324;2022-07-23T14:10:14;99860.78;;;41.71;17.99
73952;BME280;62304;47.662;18.324;2022-07-23T14:13:17;99857.38;;;42.16;17.35
73952;BME280;62304;47.662;18.324;2022-07-23T14:16:23;99842.31;;;42.28;17.52
73952;BME280;62304;47.662;18.324;2022-07-23T14:19:27;99839.22;;;42.08;17.92
73952;BME280;62304;47.662;18.324;2022-07-23T14:22:33;99828.16;;;41.73;18.24
73952;BME280;62304;47.662;18.324;2022-07-23T14:25:37;99818.06;;;41.08;18.89
73952;BME280;62304;47.662;18.324;2022-07-23T14:28:41;99822.03;;;40.71;19.67
73952;BME280;62304;47.662;18.324;2022-07-23T14:31:44;99826.53;;;40.10;20.28
73952;BME280;62304;47.662;18.324;2022-07-23T14:34:50;99830.03;;;39.39;21.05
73952;BME280;62304;47.662;18.324;2022-07-23T14:37:53;99842.75;;;38.98;21.68
73952;BME280;62304;47.662;18.324;2022-07-23T14:40:57;99853.09;;;38.56;22.17
73952;BME280;62304;47.662;18.324;2022-07-23T14:44:02;99876.88;;;38.12;23.08
73952;BME280;62304;47.662;18.324;2022-07-23T14:47:07;99871.28;;;37.86;23.18
73952;BME280;62304;47.662;18.324;2022-07-23T14:50:11;99865.34;;;37.43;23.44
73952;BME280;62304;47.662;18.324;2022-07-23T14:53:14;99878.94;;;37.27;23.46
73952;BME280;62304;47.662;18.324;2022-07-23T14:56:24;99887.72;;;37.01;23.76
73952;BME280;62304;47.662;18.324;2022-07-23T14:59:27;99898.62;;;36.62;24.14
73952;BME280;62304;47.662;18.324;2022-07-23T15:02:31;99903.16;;;36.37;24.54
73952;BME280;62304;47.662;18.324;2022-07-23T15:05:35;99911.19;;;36.18;25.03
73952;BME280;62304;47.662;18.324;2022-07-23T15:08:39;99919.72;;;35.97;25.38
73952;BME280;62304;47.662;18.324;2022-07-23T15:11:42;99919.94;;;35.73;25.37
73952;BME280;62304;47.662;18.324;2022-07-23T15:14:45;99930.22;;;35.56;25.45
73952;BME280;62304;47.662;18.324;2022-07-23T15:17:49;99939.81;;;35.32;25.52
73952;BME280;62304;47.662;18.324;2022-07-23T15:20:51;99956.13;;;35.11;25.81
73952;BME280;62304;47.662;18.324;2022-07-23T15:23:55;99965.91;;;34.90;26.00
73952;BME280;62304;47.662;18.324;2022-07-23T15:27:02;99971.63;;;34.71;26.31
73952;BME280;62304;47.662;18.324;2022-07-23T15:30:06;99995.53;;;34.48;26.40
73952;BME280;62304;47.662;18.324;2022-07-23T15:33:10;100001.28;;;34.29;26.53
73952;BME280;62304;47.662;18.324;2022-07-23T15:36:23;100005.94;;;34.08;26.72
73952;BME280;62304;47.662;18.324;2022-07-23T15:39:25;100031.78;;;33.90;27.39
73952;BME280;62304;47.662;18.324;2022-07-23T15:42:31;100030.59;;;33.45;29.58
73952;BME280;62304;47.662;18.324;2022-07-23T15:45:35;100036.91;;;32.92;32.59
73952;BME280;62304;47.662;18.324;2022-07-23T15:48:39;100043.09;;;32.55;33.48
73952;BME280;62304;47.662;18.324;2022-07-23T15:51:41;100051.00;;;32.11;36.99
73952;BME280;62304;47.662;18.324;2022-07-23T15:54:49;100080.28;;;31.82;39.52
73952;BME280;62304;47.662;18.324;2022-07-23T15:57:52;100083.63;;;31.42;43.08
73952;BME280;62304;47.662;18.324;2022-07-23T16:00:57;100092.59;;;30.96;44.47
73952;BME280;62304;47.662;18.324;2022-07-23T16:04:00;100110.00;;;30.82;44.43
73952;BME280;62304;47.662;18.324;2022-07-23T16:07:04;100124.63;;;30.47;46.88
73952;BME280;62304;47.662;18.324;2022-07-23T16:10:07;100135.16;;;30.25;47.13
73952;BME280;62304;47.662;18.324;2022-07-23T16:13:12;100132.94;;;30.09;46.66
73952;BME280;62304;47.662;18.324;2022-07-23T16:16:16;100128.59;;;29.88;48.25